createdAt,value
2018-05-07T00:00:10.159Z,0.00
2018-05-07T00:01:10.067Z,0.00
2018-05-07T00:02:09.929Z,0.00
2018-05-07T00:03:09.785Z,0.00
2018-05-07T00:04:09.663Z,0.00
2018-05-07T00:05:09.543Z,0.00
2018-05-07T00:06:09.437Z,0.00
2018-05-07T00:07:09.295Z,0.00
2018-05-07T00:08:09.176Z,0.00
2018-05-07T00:09:09.048Z,0.00
2018-05-07T00:10:08.926Z,0.00
2018-05-07T00:11:08.803Z,0.00
2018-05-07T00:12:08.690Z,0.00
2018-05-07T00:13:08.566Z,0.00
2018-05-07T00:14:08.436Z,0.00
2018-05-07T00:15:08.315Z,0.00
2018-05-07T00:16:08.188Z,0.00
2018-05-07T00:17:08.072Z,0.00
2018-05-07T00:18:07.943Z,0.00
2018-05-07T00:19:07.822Z,0.00
2018-05-07T00:20:07.703Z,0.00
2018-05-07T00:21:07.574Z,0.00
2018-05-07T00:22:07.484Z,0.00
2018-05-07T00:23:07.330Z,0.00
2018-05-07T00:24:07.206Z,0.00
2018-05-07T00:25:07.094Z,0.00
2018-05-07T00:26:06.965Z,0.00
2018-05-07T00:27:06.863Z,0.00
2018-05-07T00:28:06.712Z,0.00
2018-05-07T00:29:06.590Z,0.00
2018-05-07T00:30:06.540Z,0.00
2018-05-07T00:31:06.347Z,0.00
2018-05-07T00:32:06.225Z,0.00
2018-05-07T00:33:06.099Z,0.00
2018-05-07T00:34:05.975Z,0.00
2018-05-07T00:35:05.852Z,0.00
2018-05-07T00:36:05.730Z,0.00
2018-05-07T00:37:05.610Z,0.00
2018-05-07T00:38:05.488Z,0.00
2018-05-07T00:39:05.364Z,0.00
2018-05-07T00:40:05.240Z,0.00
2018-05-07T00:41:05.115Z,0.00
2018-05-07T00:42:04.995Z,0.00
2018-05-07T00:43:04.872Z,0.00
2018-05-07T00:44:04.750Z,0.00
2018-05-07T00:45:04.626Z,0.00
2018-05-07T00:46:04.502Z,0.00
2018-05-07T00:47:04.380Z,0.00
2018-05-07T00:48:04.256Z,0.00
2018-05-07T00:49:04.131Z,0.00
2018-05-07T00:50:04.009Z,0.00
2018-05-07T00:51:03.885Z,0.00
2018-05-07T00:52:03.761Z,0.00
2018-05-07T00:53:03.638Z,0.00
2018-05-07T00:54:03.517Z,0.00
2018-05-07T00:55:03.394Z,0.00
2018-05-07T00:56:03.268Z,0.00
2018-05-07T00:57:03.148Z,0.00
2018-05-07T00:58:03.022Z,0.00
2018-05-07T00:59:02.897Z,0.00
2018-05-07T01:00:02.773Z,0.00
2018-05-07T01:01:02.650Z,0.00
2018-05-07T01:02:02.529Z,0.00
2018-05-07T01:03:02.407Z,0.00
2018-05-07T01:04:02.288Z,0.00
2018-05-07T01:05:02.155Z,0.00
2018-05-07T01:06:02.036Z,0.00
2018-05-07T01:07:01.912Z,0.00
2018-05-07T01:08:01.785Z,0.00
2018-05-07T01:09:01.664Z,0.00
2018-05-07T01:10:01.541Z,0.00
2018-05-07T01:11:01.417Z,0.00
2018-05-07T01:12:01.315Z,0.00
2018-05-07T01:13:01.168Z,0.00
2018-05-07T01:14:01.045Z,0.00
2018-05-07T01:15:00.921Z,0.00
2018-05-07T01:16:00.799Z,0.00
2018-05-07T01:17:00.676Z,0.00
2018-05-07T01:18:00.552Z,0.00
2018-05-07T01:19:00.432Z,0.00
2018-05-07T01:20:00.304Z,0.00
2018-05-07T01:21:00.179Z,0.00
2018-05-07T01:22:00.055Z,0.00
2018-05-07T01:22:59.931Z,0.00
2018-05-07T01:23:59.812Z,0.00
2018-05-07T01:24:59.683Z,0.00
2018-05-07T01:25:59.559Z,0.00
2018-05-07T01:26:59.437Z,0.00
2018-05-07T01:27:59.315Z,0.00
2018-05-07T01:28:59.193Z,0.00
2018-05-07T01:29:59.065Z,0.00
2018-05-07T01:30:59.002Z,0.00
2018-05-07T01:31:58.816Z,0.00
2018-05-07T01:32:58.696Z,0.00
2018-05-07T01:33:58.570Z,0.00
2018-05-07T01:34:58.446Z,0.00
2018-05-07T01:35:58.324Z,0.00
2018-05-07T01:36:58.197Z,0.00
2018-05-07T01:37:58.073Z,0.00
2018-05-07T01:38:57.947Z,0.00
2018-05-07T01:39:57.827Z,0.00
2018-05-07T01:40:57.701Z,0.00
2018-05-07T01:41:57.577Z,0.00
2018-05-07T01:42:57.450Z,0.00
2018-05-07T01:43:57.327Z,0.00
2018-05-07T01:44:57.203Z,0.00
2018-05-07T01:45:57.082Z,0.00
2018-05-07T01:46:56.957Z,0.00
2018-05-07T01:47:56.833Z,0.00
2018-05-07T01:48:56.707Z,0.00
2018-05-07T01:49:56.585Z,0.00
2018-05-07T01:50:56.460Z,0.00
2018-05-07T01:51:56.332Z,0.00
2018-05-07T01:52:56.212Z,0.00
2018-05-07T01:53:56.085Z,0.00
2018-05-07T01:54:55.960Z,0.00
2018-05-07T01:55:55.837Z,0.00
2018-05-07T01:56:55.713Z,0.00
2018-05-07T01:57:55.587Z,0.00
2018-05-07T01:58:55.464Z,0.00
2018-05-07T01:59:55.339Z,0.00
2018-05-07T02:00:55.216Z,0.00
2018-05-07T02:01:55.093Z,0.00
2018-05-07T02:02:54.967Z,0.00
2018-05-07T02:03:54.843Z,0.00
2018-05-07T02:04:54.721Z,0.00
2018-05-07T02:05:54.594Z,0.00
2018-05-07T02:06:54.469Z,0.00
2018-05-07T02:07:54.343Z,0.00
2018-05-07T02:08:54.219Z,0.00
2018-05-07T02:09:54.098Z,0.00
2018-05-07T02:10:53.973Z,0.00
2018-05-07T02:11:53.847Z,0.00
2018-05-07T02:12:53.722Z,0.00
2018-05-07T02:13:53.603Z,0.00
2018-05-07T02:14:53.476Z,0.00
2018-05-07T02:15:53.350Z,0.00
2018-05-07T02:16:53.225Z,0.00
2018-05-07T02:17:53.101Z,0.00
2018-05-07T02:18:52.976Z,0.00
2018-05-07T02:19:52.851Z,0.00
2018-05-07T02:20:52.730Z,0.00
2018-05-07T02:21:52.603Z,0.00
2018-05-07T02:22:52.478Z,0.00
2018-05-07T02:23:52.357Z,0.00
2018-05-07T02:24:52.232Z,0.00
2018-05-07T02:25:52.109Z,0.00
2018-05-07T02:26:51.983Z,0.00
2018-05-07T02:27:51.862Z,0.00
2018-05-07T02:28:51.734Z,0.00
2018-05-07T02:29:51.611Z,0.00
2018-05-07T02:30:51.492Z,0.00
2018-05-07T02:31:51.362Z,0.00
2018-05-07T02:32:51.237Z,0.00
2018-05-07T02:33:51.113Z,0.00
2018-05-07T02:34:50.990Z,0.00
2018-05-07T02:35:50.865Z,0.00
2018-05-07T02:36:50.739Z,0.00
2018-05-07T02:37:50.616Z,0.00
2018-05-07T02:38:50.517Z,0.00
2018-05-07T02:39:50.371Z,0.00
2018-05-07T02:40:50.244Z,0.00
2018-05-07T02:41:50.125Z,0.00
2018-05-07T02:42:49.996Z,0.00
2018-05-07T02:43:49.868Z,0.00
2018-05-07T02:44:49.747Z,0.00
2018-05-07T02:45:49.619Z,0.00
2018-05-07T02:46:49.500Z,0.00
2018-05-07T02:47:49.375Z,0.00
2018-05-07T02:48:49.246Z,0.00
2018-05-07T02:49:49.122Z,0.00
2018-05-07T02:50:48.997Z,0.00
2018-05-07T02:51:48.873Z,0.00
2018-05-07T02:52:48.747Z,0.00
2018-05-07T02:53:48.626Z,0.00
2018-05-07T02:54:48.498Z,0.00
2018-05-07T02:55:48.373Z,0.00
2018-05-07T02:56:48.254Z,0.00
2018-05-07T02:57:48.131Z,0.00
2018-05-07T02:58:48.001Z,0.00
2018-05-07T02:59:47.876Z,0.00
2018-05-07T03:00:47.750Z,0.00
2018-05-07T03:01:47.627Z,0.00
2018-05-07T03:02:47.500Z,0.00
2018-05-07T03:03:47.379Z,0.00
2018-05-07T03:04:47.252Z,0.00
2018-05-07T03:05:47.128Z,0.00
2018-05-07T03:06:47.005Z,0.00
2018-05-07T03:07:46.876Z,0.00
2018-05-07T03:08:46.754Z,0.00
2018-05-07T03:09:46.630Z,0.00
2018-05-07T03:10:46.505Z,0.00
2018-05-07T03:11:46.381Z,0.00
2018-05-07T03:12:46.264Z,0.00
2018-05-07T03:13:46.131Z,0.00
2018-05-07T03:14:46.006Z,0.00
2018-05-07T03:15:45.882Z,0.00
2018-05-07T03:16:45.757Z,0.00
2018-05-07T03:17:45.633Z,0.00
2018-05-07T03:18:45.506Z,0.00
2018-05-07T03:19:45.383Z,0.00
2018-05-07T03:20:45.255Z,0.00
2018-05-07T03:21:45.133Z,0.00
2018-05-07T03:22:45.007Z,0.00
2018-05-07T03:23:44.880Z,0.00
2018-05-07T03:24:44.808Z,0.00
2018-05-07T03:25:44.633Z,0.00
2018-05-07T03:26:44.508Z,0.00
2018-05-07T03:27:44.385Z,0.00
2018-05-07T03:28:44.261Z,0.00
2018-05-07T03:29:44.137Z,0.00
2018-05-07T03:30:44.012Z,0.00
2018-05-07T03:31:43.886Z,0.00
2018-05-07T03:32:43.762Z,0.00
2018-05-07T03:33:43.636Z,0.00
2018-05-07T03:34:43.512Z,0.00
2018-05-07T03:35:43.387Z,0.00
2018-05-07T03:36:43.260Z,0.00
2018-05-07T03:37:43.170Z,0.00
2018-05-07T03:38:43.013Z,0.00
2018-05-07T03:39:42.888Z,0.00
2018-05-07T03:40:42.766Z,0.00
2018-05-07T03:41:42.642Z,0.00
2018-05-07T03:42:42.522Z,0.00
2018-05-07T03:43:42.392Z,0.00
2018-05-07T03:44:42.266Z,0.00
2018-05-07T03:45:42.141Z,0.00
2018-05-07T03:46:42.018Z,0.00
2018-05-07T03:47:41.894Z,0.00
2018-05-07T03:48:41.779Z,0.00
2018-05-07T03:49:41.645Z,0.00
2018-05-07T03:50:41.522Z,0.00
2018-05-07T03:51:41.394Z,0.00
2018-05-07T03:52:41.269Z,0.00
2018-05-07T03:53:41.144Z,0.00
2018-05-07T03:54:41.022Z,0.00
2018-05-07T03:55:40.896Z,0.00
2018-05-07T03:56:40.773Z,0.00
2018-05-07T03:57:40.649Z,0.00
2018-05-07T03:58:40.521Z,0.00
2018-05-07T03:59:40.486Z,5.63
2018-05-07T04:00:40.275Z,5.63
2018-05-07T04:01:40.151Z,5.63
2018-05-07T04:02:40.022Z,5.63
2018-05-07T04:03:39.901Z,5.63
2018-05-07T04:04:39.775Z,5.63
2018-05-07T04:05:39.649Z,5.63
2018-05-07T04:06:39.522Z,5.63
2018-05-07T04:07:39.400Z,5.63
2018-05-07T04:08:39.279Z,5.63
2018-05-07T04:09:39.152Z,5.63
2018-05-07T04:10:39.026Z,11.25
2018-05-07T04:11:38.901Z,11.25
2018-05-07T04:12:38.779Z,11.25
2018-05-07T04:13:38.651Z,11.25
2018-05-07T04:14:38.528Z,11.25
2018-05-07T04:15:38.402Z,11.25
2018-05-07T04:16:38.278Z,11.25
2018-05-07T04:17:38.153Z,11.25
2018-05-07T04:18:38.026Z,16.88
2018-05-07T04:19:37.902Z,16.88
2018-05-07T04:20:37.781Z,16.88
2018-05-07T04:21:37.651Z,16.88
2018-05-07T04:22:37.601Z,16.88
2018-05-07T04:23:37.403Z,16.88
2018-05-07T04:24:37.277Z,16.88
2018-05-07T04:25:37.152Z,16.88
2018-05-07T04:26:37.028Z,16.88
2018-05-07T04:27:36.905Z,22.50
2018-05-07T04:28:36.779Z,22.50
2018-05-07T04:29:36.655Z,22.50
2018-05-07T04:30:36.532Z,22.50
2018-05-07T04:31:36.402Z,22.50
2018-05-07T04:32:36.277Z,22.50
2018-05-07T04:33:36.218Z,22.50
2018-05-07T04:34:36.030Z,22.50
2018-05-07T04:35:35.905Z,28.13
2018-05-07T04:36:35.778Z,28.13
2018-05-07T04:37:35.654Z,28.13
2018-05-07T04:38:35.528Z,28.13
2018-05-07T04:39:35.401Z,28.13
2018-05-07T04:40:35.279Z,28.13
2018-05-07T04:41:35.156Z,28.13
2018-05-07T04:42:35.029Z,28.13
2018-05-07T04:43:34.902Z,28.13
2018-05-07T04:44:34.781Z,33.75
2018-05-07T04:45:34.654Z,33.75
2018-05-07T04:46:34.530Z,33.75
2018-05-07T04:47:34.406Z,33.75
2018-05-07T04:48:34.281Z,33.75
2018-05-07T04:49:34.157Z,33.75
2018-05-07T04:50:34.031Z,33.75
2018-05-07T04:51:33.908Z,39.38
2018-05-07T04:52:33.794Z,39.38
2018-05-07T04:53:33.658Z,39.38
2018-05-07T04:54:33.536Z,45.00
2018-05-07T04:55:33.407Z,50.63
2018-05-07T04:56:33.286Z,50.63
2018-05-07T04:57:33.160Z,45.00
2018-05-07T04:58:33.038Z,50.63
2018-05-07T04:59:32.911Z,50.63
2018-05-07T05:00:32.787Z,45.00
2018-05-07T05:01:32.662Z,45.00
2018-05-07T05:02:32.542Z,56.25
2018-05-07T05:03:32.413Z,56.25
2018-05-07T05:04:32.293Z,50.63
2018-05-07T05:05:32.172Z,56.25
2018-05-07T05:06:32.044Z,56.25
2018-05-07T05:07:31.918Z,50.63
2018-05-07T05:08:31.798Z,45.00
2018-05-07T05:09:31.671Z,45.00
2018-05-07T05:10:31.544Z,45.00
2018-05-07T05:11:31.421Z,45.00
2018-05-07T05:12:31.301Z,45.00
2018-05-07T05:13:31.176Z,45.00
2018-05-07T05:14:31.051Z,45.00
2018-05-07T05:15:30.934Z,45.00
2018-05-07T05:16:30.805Z,50.63
2018-05-07T05:17:30.684Z,50.63
2018-05-07T05:18:30.556Z,56.25
2018-05-07T05:19:30.433Z,67.50
2018-05-07T05:20:30.307Z,61.88
2018-05-07T05:21:30.230Z,56.25
2018-05-07T05:22:30.060Z,56.25
2018-05-07T05:23:29.938Z,56.25
2018-05-07T05:24:29.814Z,56.25
2018-05-07T05:25:29.690Z,61.88
2018-05-07T05:26:29.563Z,61.88
2018-05-07T05:27:29.442Z,61.88
2018-05-07T05:28:29.315Z,67.50
2018-05-07T05:29:29.193Z,67.50
2018-05-07T05:30:29.069Z,73.13
2018-05-07T05:31:28.946Z,78.75
2018-05-07T05:32:28.821Z,84.38
2018-05-07T05:33:28.698Z,84.38
2018-05-07T05:34:28.574Z,84.38
2018-05-07T05:35:28.449Z,84.38
2018-05-07T05:36:28.327Z,84.38
2018-05-07T05:37:28.202Z,84.38
2018-05-07T05:38:28.078Z,84.38
2018-05-07T05:39:27.951Z,84.38
2018-05-07T05:40:27.830Z,84.38
2018-05-07T05:41:27.706Z,90.00
2018-05-07T05:42:27.581Z,90.00
2018-05-07T05:43:27.541Z,95.63
2018-05-07T05:44:27.333Z,101.25
2018-05-07T05:45:27.208Z,101.25
2018-05-07T05:46:27.086Z,106.88
2018-05-07T05:47:26.964Z,112.50
2018-05-07T05:48:26.839Z,118.13
2018-05-07T05:49:26.719Z,118.13
2018-05-07T05:50:26.593Z,118.13
2018-05-07T05:51:26.468Z,112.50
2018-05-07T05:52:26.346Z,112.50
2018-05-07T05:53:26.222Z,112.50
2018-05-07T05:54:26.102Z,118.13
2018-05-07T05:55:25.978Z,118.13
2018-05-07T05:56:25.922Z,123.75
2018-05-07T05:57:25.733Z,123.75
2018-05-07T05:58:25.609Z,123.75
2018-05-07T05:59:25.484Z,123.75
2018-05-07T06:00:25.361Z,123.75
2018-05-07T06:01:25.240Z,123.75
2018-05-07T06:02:25.114Z,129.38
2018-05-07T06:03:24.996Z,123.75
2018-05-07T06:04:24.873Z,129.38
2018-05-07T06:05:24.749Z,123.75
2018-05-07T06:06:24.624Z,112.50
2018-05-07T06:07:24.506Z,106.88
2018-05-07T06:08:24.379Z,101.25
2018-05-07T06:09:24.259Z,101.25
2018-05-07T06:10:24.134Z,95.63
2018-05-07T06:11:24.010Z,95.63
2018-05-07T06:12:23.892Z,95.63
2018-05-07T06:13:23.768Z,112.50
2018-05-07T06:14:23.722Z,123.75
2018-05-07T06:15:23.522Z,123.75
2018-05-07T06:16:23.464Z,123.75
2018-05-07T06:17:23.278Z,123.75
2018-05-07T06:18:23.156Z,118.13
2018-05-07T06:19:23.032Z,112.50
2018-05-07T06:20:22.908Z,112.50
2018-05-07T06:21:22.803Z,95.63
2018-05-07T06:22:22.666Z,73.13
2018-05-07T06:23:22.541Z,73.13
2018-05-07T06:24:22.418Z,73.13
2018-05-07T06:25:22.300Z,73.13
2018-05-07T06:26:22.175Z,73.13
2018-05-07T06:27:22.067Z,73.13
2018-05-07T06:28:21.932Z,84.38
2018-05-07T06:29:21.809Z,101.25
2018-05-07T06:30:21.693Z,106.88
2018-05-07T06:31:21.571Z,112.50
2018-05-07T06:32:21.443Z,112.50
2018-05-07T06:33:21.323Z,112.50
2018-05-07T06:34:21.229Z,106.88
2018-05-07T06:35:21.077Z,95.63
2018-05-07T06:36:20.958Z,112.50
2018-05-07T06:37:20.833Z,118.13
2018-05-07T06:38:20.714Z,118.13
2018-05-07T06:39:20.590Z,118.13
2018-05-07T06:40:20.472Z,118.13
2018-05-07T06:41:20.350Z,118.13
2018-05-07T06:42:20.224Z,118.13
2018-05-07T06:43:20.103Z,118.13
2018-05-07T06:44:19.982Z,118.13
2018-05-07T06:45:19.859Z,118.13
2018-05-07T06:46:19.741Z,118.13
2018-05-07T06:47:19.615Z,118.13
2018-05-07T06:48:19.495Z,118.13
2018-05-07T06:49:19.375Z,118.13
2018-05-07T06:50:19.254Z,118.13
2018-05-07T06:51:19.132Z,118.13
2018-05-07T06:52:19.008Z,118.13
2018-05-07T06:53:18.889Z,118.13
2018-05-07T06:54:18.765Z,118.13
2018-05-07T06:55:18.645Z,118.13
2018-05-07T06:56:18.524Z,118.13
2018-05-07T06:57:18.404Z,118.13
2018-05-07T06:58:18.284Z,118.13
2018-05-07T06:59:18.162Z,118.13
2018-05-07T07:00:18.040Z,118.13
2018-05-07T07:01:17.916Z,118.13
2018-05-07T07:02:17.817Z,118.13
2018-05-07T07:03:17.675Z,123.75
2018-05-07T07:04:17.556Z,123.75
2018-05-07T07:05:17.433Z,123.75
2018-05-07T07:06:17.314Z,123.75
2018-05-07T07:07:17.192Z,123.75
2018-05-07T07:08:17.138Z,123.75
2018-05-07T07:09:16.949Z,123.75
2018-05-07T07:10:16.826Z,123.75
2018-05-07T07:11:16.707Z,123.75
2018-05-07T07:12:16.591Z,129.38
2018-05-07T07:13:16.465Z,129.38
2018-05-07T07:14:16.342Z,129.38
2018-05-07T07:15:16.223Z,129.38
2018-05-07T07:16:16.111Z,129.38
2018-05-07T07:17:15.984Z,129.38
2018-05-07T07:18:15.861Z,129.38
2018-05-07T07:19:15.740Z,129.38
2018-05-07T07:20:15.622Z,129.38
2018-05-07T07:21:15.499Z,129.38
2018-05-07T07:22:15.379Z,129.38
2018-05-07T07:23:15.259Z,129.38
2018-05-07T07:24:15.140Z,129.38
2018-05-07T07:25:15.017Z,129.38
2018-05-07T07:26:14.895Z,129.38
2018-05-07T07:27:14.776Z,129.38
2018-05-07T07:28:14.662Z,135.00
2018-05-07T07:29:14.536Z,135.00
2018-05-07T07:30:14.413Z,135.00
2018-05-07T07:31:14.296Z,135.00
2018-05-07T07:32:14.182Z,135.00
2018-05-07T07:33:14.056Z,135.00
2018-05-07T07:34:13.933Z,135.00
2018-05-07T07:35:13.813Z,135.00
2018-05-07T07:36:13.693Z,135.00
2018-05-07T07:37:13.576Z,135.00
2018-05-07T07:38:13.453Z,135.00
2018-05-07T07:39:13.334Z,135.00
2018-05-07T07:40:13.213Z,140.63
2018-05-07T07:41:13.099Z,140.63
2018-05-07T07:42:12.973Z,140.63
2018-05-07T07:43:12.855Z,140.63
2018-05-07T07:44:12.732Z,140.63
2018-05-07T07:45:12.613Z,140.63
2018-05-07T07:46:12.493Z,140.63
2018-05-07T07:47:12.463Z,140.63
2018-05-07T07:48:12.333Z,140.63
2018-05-07T07:49:12.138Z,140.63
2018-05-07T07:50:12.014Z,140.63
2018-05-07T07:51:11.894Z,140.63
2018-05-07T07:52:11.777Z,140.63
2018-05-07T07:53:11.655Z,140.63
2018-05-07T07:54:11.537Z,146.25
2018-05-07T07:55:11.419Z,146.25
2018-05-07T07:56:11.304Z,146.25
2018-05-07T07:57:11.178Z,146.25
2018-05-07T07:58:11.057Z,146.25
2018-05-07T07:59:10.936Z,146.25
2018-05-07T08:00:10.817Z,146.25
2018-05-07T08:01:10.699Z,146.25
2018-05-07T08:02:10.579Z,146.25
2018-05-07T08:03:10.458Z,146.25
2018-05-07T08:04:10.357Z,146.25
2018-05-07T08:05:10.220Z,151.88
2018-05-07T08:06:10.101Z,151.88
2018-05-07T08:07:09.985Z,151.88
2018-05-07T08:08:09.860Z,151.88
2018-05-07T08:09:09.742Z,151.88
2018-05-07T08:10:09.628Z,151.88
2018-05-07T08:11:09.508Z,151.88
2018-05-07T08:12:09.499Z,151.88
2018-05-07T08:13:09.266Z,151.88
2018-05-07T08:14:09.144Z,151.88
2018-05-07T08:15:09.026Z,151.88
2018-05-07T08:16:08.911Z,151.88
2018-05-07T08:17:08.789Z,151.88
2018-05-07T08:18:08.668Z,151.88
2018-05-07T08:19:08.552Z,151.88
2018-05-07T08:20:08.433Z,157.50
2018-05-07T08:21:08.316Z,157.50
2018-05-07T08:22:08.193Z,157.50
2018-05-07T08:23:08.076Z,157.50
2018-05-07T08:24:07.954Z,163.13
2018-05-07T08:25:07.839Z,163.13
2018-05-07T08:26:07.721Z,163.13
2018-05-07T08:27:07.598Z,163.13
2018-05-07T08:28:07.483Z,168.75
2018-05-07T08:29:07.366Z,168.75
2018-05-07T08:30:07.247Z,168.75
2018-05-07T08:31:07.129Z,168.75
2018-05-07T08:32:07.008Z,168.75
2018-05-07T08:33:06.931Z,168.75
2018-05-07T08:34:06.767Z,168.75
2018-05-07T08:35:06.651Z,174.38
2018-05-07T08:36:06.534Z,168.75
2018-05-07T08:37:06.412Z,168.75
2018-05-07T08:38:06.297Z,174.38
2018-05-07T08:39:06.180Z,157.50
2018-05-07T08:40:06.058Z,151.88
2018-05-07T08:41:05.939Z,146.25
2018-05-07T08:42:05.818Z,129.38
2018-05-07T08:43:05.701Z,163.13
2018-05-07T08:44:05.581Z,180.00
2018-05-07T08:45:05.464Z,180.00
2018-05-07T08:46:05.351Z,180.00
2018-05-07T08:47:05.230Z,185.63
2018-05-07T08:48:05.115Z,191.25
2018-05-07T08:49:04.996Z,202.50
2018-05-07T08:50:04.873Z,213.75
2018-05-07T08:51:04.841Z,225.00
2018-05-07T08:52:04.635Z,241.88
2018-05-07T08:53:04.628Z,264.38
2018-05-07T08:54:04.401Z,286.88
2018-05-07T08:55:04.290Z,303.75
2018-05-07T08:56:04.164Z,315.00
2018-05-07T08:57:04.050Z,326.25
2018-05-07T08:58:03.929Z,343.13
2018-05-07T08:59:03.814Z,354.38
2018-05-07T09:00:03.695Z,354.38
2018-05-07T09:01:03.578Z,360.00
2018-05-07T09:02:03.464Z,365.63
2018-05-07T09:03:03.343Z,365.63
2018-05-07T09:04:03.226Z,365.63
2018-05-07T09:05:03.108Z,371.25
2018-05-07T09:06:02.991Z,376.88
2018-05-07T09:07:02.874Z,371.25
2018-05-07T09:08:02.850Z,371.25
2018-05-07T09:09:02.638Z,376.88
2018-05-07T09:10:02.526Z,376.88
2018-05-07T09:11:02.418Z,371.25
2018-05-07T09:12:02.289Z,376.88
2018-05-07T09:13:02.172Z,371.25
2018-05-07T09:14:02.094Z,365.63
2018-05-07T09:15:01.940Z,365.63
2018-05-07T09:16:01.819Z,376.88
2018-05-07T09:17:01.710Z,360.00
2018-05-07T09:18:01.586Z,360.00
2018-05-07T09:19:01.533Z,365.63
2018-05-07T09:20:01.354Z,371.25
2018-05-07T09:21:01.238Z,371.25
2018-05-07T09:22:01.121Z,354.38
2018-05-07T09:23:01.005Z,337.50
2018-05-07T09:24:00.889Z,331.88
2018-05-07T09:25:00.771Z,337.50
2018-05-07T09:26:00.654Z,337.50
2018-05-07T09:27:00.539Z,337.50
2018-05-07T09:28:00.423Z,354.38
2018-05-07T09:29:00.306Z,371.25
2018-05-07T09:30:00.189Z,382.50
2018-05-07T09:31:00.073Z,393.75
2018-05-07T09:31:59.958Z,405.00
2018-05-07T09:32:59.838Z,405.00
2018-05-07T09:33:59.723Z,399.38
2018-05-07T09:34:59.606Z,388.13
2018-05-07T09:35:59.490Z,382.50
2018-05-07T09:36:59.394Z,376.88
2018-05-07T09:37:59.258Z,376.88
2018-05-07T09:38:59.143Z,360.00
2018-05-07T09:39:59.025Z,337.50
2018-05-07T09:40:58.911Z,270.00
2018-05-07T09:41:58.793Z,270.00
2018-05-07T09:42:58.726Z,270.00
2018-05-07T09:43:58.561Z,303.75
2018-05-07T09:44:58.443Z,315.00
2018-05-07T09:45:58.328Z,326.25
2018-05-07T09:46:58.209Z,343.13
2018-05-07T09:47:58.095Z,343.13
2018-05-07T09:48:58.058Z,326.25
2018-05-07T09:49:57.862Z,309.38
2018-05-07T09:50:57.745Z,315.00
2018-05-07T09:51:57.631Z,320.63
2018-05-07T09:52:57.511Z,337.50
2018-05-07T09:53:57.394Z,348.75
2018-05-07T09:54:57.277Z,365.63
2018-05-07T09:55:57.164Z,354.38
2018-05-07T09:56:57.177Z,331.88
2018-05-07T09:57:56.930Z,320.63
2018-05-07T09:58:56.811Z,315.00
2018-05-07T09:59:56.697Z,303.75
2018-05-07T10:00:56.578Z,309.38
2018-05-07T10:01:56.460Z,315.00
2018-05-07T10:02:56.346Z,315.00
2018-05-07T10:03:56.232Z,309.38
2018-05-07T10:04:56.114Z,303.75
2018-05-07T10:05:55.995Z,298.13
2018-05-07T10:06:55.876Z,309.38
2018-05-07T10:07:55.759Z,303.75
2018-05-07T10:08:55.641Z,303.75
2018-05-07T10:09:55.522Z,292.50
2018-05-07T10:10:55.405Z,292.50
2018-05-07T10:11:55.287Z,303.75
2018-05-07T10:12:55.167Z,298.13
2018-05-07T10:13:55.050Z,303.75
2018-05-07T10:14:54.933Z,309.38
2018-05-07T10:15:54.814Z,309.38
2018-05-07T10:16:54.698Z,303.75
2018-05-07T10:17:54.579Z,303.75
2018-05-07T10:18:54.460Z,292.50
2018-05-07T10:19:54.341Z,281.25
2018-05-07T10:20:54.225Z,275.63
2018-05-07T10:21:54.104Z,270.00
2018-05-07T10:22:53.988Z,264.38
2018-05-07T10:23:53.869Z,253.13
2018-05-07T10:24:53.752Z,253.13
2018-05-07T10:25:53.629Z,253.13
2018-05-07T10:26:53.511Z,253.13
2018-05-07T10:27:53.400Z,258.75
2018-05-07T10:28:53.276Z,264.38
2018-05-07T10:29:53.226Z,270.00
2018-05-07T10:30:53.035Z,275.63
2018-05-07T10:31:52.955Z,286.88
2018-05-07T10:32:52.801Z,292.50
2018-05-07T10:33:52.682Z,298.13
2018-05-07T10:34:52.563Z,298.13
2018-05-07T10:35:52.443Z,292.50
2018-05-07T10:36:52.328Z,286.88
2018-05-07T10:37:52.207Z,286.88
2018-05-07T10:38:52.090Z,281.25
2018-05-07T10:39:51.974Z,281.25
2018-05-07T10:40:51.851Z,275.63
2018-05-07T10:41:51.733Z,270.00
2018-05-07T10:42:51.615Z,270.00
2018-05-07T10:43:51.496Z,270.00
2018-05-07T10:44:51.378Z,264.38
2018-05-07T10:45:51.260Z,264.38
2018-05-07T10:46:51.142Z,258.75
2018-05-07T10:47:51.023Z,258.75
2018-05-07T10:48:50.903Z,253.13
2018-05-07T10:49:50.781Z,247.50
2018-05-07T10:50:50.667Z,247.50
2018-05-07T10:51:50.547Z,241.88
2018-05-07T10:52:50.430Z,236.25
2018-05-07T10:53:50.311Z,236.25
2018-05-07T10:54:50.198Z,236.25
2018-05-07T10:55:50.074Z,230.63
2018-05-07T10:56:49.955Z,230.63
2018-05-07T10:57:49.835Z,219.38
2018-05-07T10:58:49.718Z,219.38
2018-05-07T10:59:49.600Z,213.75
2018-05-07T11:00:49.484Z,213.75
2018-05-07T11:01:49.363Z,208.13
2018-05-07T11:02:49.243Z,208.13
2018-05-07T11:03:49.125Z,202.50
2018-05-07T11:04:49.006Z,202.50
2018-05-07T11:05:48.887Z,202.50
2018-05-07T11:06:48.770Z,202.50
2018-05-07T11:07:48.650Z,208.13
2018-05-07T11:08:48.535Z,219.38
2018-05-07T11:09:48.412Z,225.00
2018-05-07T11:10:48.296Z,230.63
2018-05-07T11:11:48.176Z,230.63
2018-05-07T11:12:48.059Z,230.63
2018-05-07T11:13:47.939Z,230.63
2018-05-07T11:14:47.822Z,230.63
2018-05-07T11:15:47.699Z,230.63
2018-05-07T11:16:47.588Z,230.63
2018-05-07T11:17:47.466Z,230.63
2018-05-07T11:18:47.346Z,230.63
2018-05-07T11:19:47.308Z,241.88
2018-05-07T11:20:47.115Z,253.13
2018-05-07T11:21:46.992Z,270.00
2018-05-07T11:22:46.870Z,298.13
2018-05-07T11:23:46.757Z,326.25
2018-05-07T11:24:46.634Z,371.25
2018-05-07T11:25:46.516Z,433.13
2018-05-07T11:26:46.401Z,511.88
2018-05-07T11:27:46.284Z,562.50
2018-05-07T11:28:46.158Z,579.38
2018-05-07T11:29:46.040Z,624.38
2018-05-07T11:30:45.924Z,635.63
2018-05-07T11:31:45.803Z,635.63
2018-05-07T11:32:45.688Z,607.50
2018-05-07T11:33:45.569Z,680.63
2018-05-07T11:34:45.452Z,714.38
2018-05-07T11:35:45.335Z,753.75
2018-05-07T11:36:45.221Z,787.50
2018-05-07T11:37:45.102Z,821.25
2018-05-07T11:38:44.989Z,804.38
2018-05-07T11:39:44.872Z,585.00
2018-05-07T11:40:44.757Z,534.38
2018-05-07T11:41:44.640Z,495.00
2018-05-07T11:42:44.526Z,489.38
2018-05-07T11:43:44.409Z,506.25
2018-05-07T11:44:44.292Z,534.38
2018-05-07T11:45:44.178Z,534.38
2018-05-07T11:46:44.063Z,551.25
2018-05-07T11:47:43.965Z,596.25
2018-05-07T11:48:43.831Z,613.13
2018-05-07T11:49:43.717Z,613.13
2018-05-07T11:50:43.600Z,618.75
2018-05-07T11:51:43.484Z,703.13
2018-05-07T11:52:43.368Z,635.63
2018-05-07T11:53:43.252Z,669.38
2018-05-07T11:54:43.140Z,523.13
2018-05-07T11:55:43.022Z,556.88
2018-05-07T11:56:42.909Z,545.63
2018-05-07T11:57:42.793Z,517.50
2018-05-07T11:58:42.676Z,500.63
2018-05-07T11:59:42.557Z,489.38
2018-05-07T12:00:42.443Z,478.13
2018-05-07T12:01:42.327Z,466.88
2018-05-07T12:02:42.273Z,461.25
2018-05-07T12:03:42.100Z,472.50
2018-05-07T12:04:41.982Z,500.63
2018-05-07T12:05:41.866Z,556.88
2018-05-07T12:06:41.747Z,601.88
2018-05-07T12:07:41.700Z,641.25
2018-05-07T12:08:41.517Z,613.13
2018-05-07T12:09:41.401Z,585.00
2018-05-07T12:10:41.281Z,568.13
2018-05-07T12:11:41.166Z,601.88
2018-05-07T12:12:41.048Z,551.25
2018-05-07T12:13:40.934Z,528.75
2018-05-07T12:14:40.815Z,545.63
2018-05-07T12:15:40.713Z,483.75
2018-05-07T12:16:40.581Z,438.75
2018-05-07T12:17:40.468Z,444.38
2018-05-07T12:18:40.347Z,433.13
2018-05-07T12:19:40.230Z,450.00
2018-05-07T12:20:40.113Z,438.75
2018-05-07T12:21:39.994Z,427.50
2018-05-07T12:22:39.880Z,433.13
2018-05-07T12:23:39.764Z,455.63
2018-05-07T12:24:39.641Z,455.63
2018-05-07T12:25:39.525Z,450.00
2018-05-07T12:26:39.404Z,472.50
2018-05-07T12:27:39.286Z,506.25
2018-05-07T12:28:39.168Z,601.88
2018-05-07T12:29:39.053Z,641.25
2018-05-07T12:30:38.932Z,646.88
2018-05-07T12:31:38.987Z,658.13
2018-05-07T12:32:38.695Z,663.75
2018-05-07T12:33:38.576Z,680.63
2018-05-07T12:34:38.457Z,641.25
2018-05-07T12:35:38.337Z,607.50
2018-05-07T12:36:38.217Z,523.13
2018-05-07T12:37:38.177Z,466.88
2018-05-07T12:38:37.983Z,433.13
2018-05-07T12:39:37.864Z,410.63
2018-05-07T12:40:37.746Z,382.50
2018-05-07T12:41:37.626Z,360.00
2018-05-07T12:42:37.507Z,348.75
2018-05-07T12:43:37.386Z,348.75
2018-05-07T12:44:37.267Z,365.63
2018-05-07T12:45:37.151Z,371.25